Carlsbad, NM

5:47 PM MST on January 30, 2015 (GMT -0700)
Cavern City | Change Station
CLOSE
Current Station
Airport
Location: Carlsbad,
Elevation: 3294 ft
Nearby Weather Stations

Elev 3294 ft 32.33 °N, 104.26 °W | Updated 54 minutes ago

Overcast
Overcast
43 °F
Feels Like 41 °F
N
4
Wind Variable Wind from ESE

Today
High -- | Low -- °F
--% Chance of Precip.
Yesterday
High -- | Low -- °F
Precip. -- in
6:52 AM 5:28 PM
Waxing Gibbous, 86% visible
Pressure 30.14 in
Visibility 10.0 miles
Clouds Overcast 3200 ft
Windchill 41 °F
Dew Point 32 °F
Humidity 65%
Rainfall 0.01 in
Snow Depth Not available.
UV 0 out of 12
Pollen .60 out of 12
Air Quality Not available.
Flu Activity Not available.
METAR KCNM 302353Z AUTO 12003KT 10SM OVC032 06/00 A3017 RMK AO2 SLP205 60000 T00610000 10061 20050 56020

More Conditions Fewer Conditions

Pressure 30.14 in
Visibility 10.0 miles
Clouds Overcast 3200 ft
Windchill 41 °F
Dew Point 32 °F
Humidity 65%
Rainfall 0.01 in
Snow Depth Not available.
UV 0 out of 12
Pollen .60 out of 12
Air Quality Not available.
Flu Activity Not available.
METAR KCNM 302353Z AUTO 12003KT 10SM OVC032 06/00 A3017 RMK AO2 SLP205 60000 T00610000 10061 20050 56020

More Conditions Fewer Conditions

10-Day Weather Forecast

Almanac

Astronomy

Jan. 30, 2015 Rise Set
Actual Time
Civil Twilight
Nautical Twilight
Astronomical Twilight
Moon
Length of Visible Light
Length of Day
Tomorrow will be .
, % of the Moon is Illuminated

Today's Extremes

State Highs State Lows

Community

WunderPhotos

Upload Photos

1,791,942 photos uploaded!

WunderBlogs® & News

Nearby

Air Quality

  Air Quality AQ Index Pollutant
Not available.

Snow Depth

Station Depth Elevation

Earthquake Activity

City Distance Mag. Time & Date
Minimum magnitude displayed is 2.5.

Coastal Water Temperatures

Place Temperature

Nearby Weather Stations